»·PEaware :: FDX2094 KSFO-KSAN

FDX2094 :: KSFO-KSAN

FLIGHT INFORMATION

Flight Status: Arrived
Operator:
Federal Express
More flights by this operator :: More flights under this callsign
Pilot: Will K. (13011)
Aircraft: Unknown
(B77L)
More flights by this aircraft type
Origin: KSFO San Francisco Intl
United States
Destination: KSAN San Diego Intl-Lindbergh
United States
More flights between these airports :: More routes between these airports
Route: +OFFSH1 MCKEY LAX COMIX2
File this flight plan on PilotEdge
Remarks:
Altitude:
(Current/Filed)
35,000ft
Speed:
(Current/Filed)
500kts
Departed: 11-Oct-18 04:01 PM
Arrived: 11-Oct-18 05:14 PM
Distance/Time
Traveled:
388nm/1:13
Distance/Time
To Go:
Arrived

Flight Plot

Page will automatically refresh every two minutes.

Flight plan parsing failed; only flown route is shown


Map Options




Map Legend


Flown Route
Filed Route
Departure Airport
Arrival Airport
Navaid (VOR, NDB)
Fix

Horizontal Profiles

Position Reports

Time Latitude Longitude Heading Altitude Ground
Speed
11-Oct-18 15:31 37.635586 -122.387335 70 26ft 0kts
11-Oct-18 15:32 37.635586 -122.387335 70 26ft 0kts
11-Oct-18 15:33 37.635586 -122.387335 70 26ft 0kts
11-Oct-18 15:34 37.635586 -122.387335 70 26ft 0kts
11-Oct-18 15:35 37.635586 -122.387335 70 26ft 0kts
11-Oct-18 15:36 37.635586 -122.387335 70 26ft 0kts
11-Oct-18 15:37 37.635586 -122.387335 70 26ft 0kts
11-Oct-18 15:38 37.635586 -122.387335 70 26ft 0kts
11-Oct-18 15:39 37.635586 -122.387335 70 26ft 0kts
11-Oct-18 15:40 37.635586 -122.387335 70 26ft 0kts
11-Oct-18 15:41 37.635586 -122.387335 70 26ft 0kts
11-Oct-18 15:42 37.635586 -122.387335 70 26ft 0kts
11-Oct-18 15:43 37.635586 -122.387335 70 26ft 0kts
11-Oct-18 15:44 37.635523 -122.387589 82 26ft 2kts
11-Oct-18 15:45 37.635724 -122.388172 164 26ft 2kts
11-Oct-18 15:46 37.635988 -122.388264 164 26ft 0kts
11-Oct-18 15:47 37.635988 -122.388264 164 26ft 0kts
11-Oct-18 15:48 37.635988 -122.388264 164 26ft 0kts
11-Oct-18 15:49 37.635603 -122.388141 167 26ft 7kts
11-Oct-18 15:50 37.633927 -122.390819 243 26ft 11kts
11-Oct-18 15:51 37.631766 -122.391765 243 26ft 4kts
11-Oct-18 15:52 37.631750 -122.391805 243 26ft 0kts
11-Oct-18 15:53 37.630132 -122.392166 157 26ft 11kts
11-Oct-18 15:54 37.627760 -122.387392 118 26ft 15kts
11-Oct-18 15:55 37.626114 -122.383450 117 26ft 14kts
11-Oct-18 15:56 37.624126 -122.378687 117 26ft 13kts
11-Oct-18 15:57 37.622869 -122.375687 116 26ft 5kts
11-Oct-18 15:58 37.621138 -122.371535 117 26ft 20kts
11-Oct-18 15:59 37.618698 -122.365709 117 26ft 16kts
11-Oct-18 16:00 37.616788 -122.361140 117 26ft 14kts
11-Oct-18 16:01 37.615157 -122.357253 120 26ft 8kts
11-Oct-18 16:02 37.613967 -122.358036 297 26ft 0kts
11-Oct-18 16:03 37.624793 -122.383861 297 266ft 190kts
11-Oct-18 16:04 37.652363 -122.449677 296 3376ft 231kts
11-Oct-18 16:05 37.662188 -122.528045 236 6394ft 260kts
11-Oct-18 16:06 37.598935 -122.612497 235 9719ft 302kts
11-Oct-18 16:07 37.556364 -122.689402 222 11578ft 353kts
11-Oct-18 16:08 37.454452 -122.704856 167 14150ft 402kts
11-Oct-18 16:09 37.342178 -122.671779 167 17392ft 424kts
11-Oct-18 16:10 37.225073 -122.640658 168 18900ft 434kts
11-Oct-18 16:11 37.104681 -122.609095 169 21528ft 450kts
11-Oct-18 16:12 36.979573 -122.576449 170 24178ft 467kts
11-Oct-18 16:13 36.849874 -122.542734 170 26675ft 484kts
11-Oct-18 16:14 36.715485 -122.507836 170 28954ft 500kts
11-Oct-18 16:15 36.578397 -122.472325 170 31306ft 503kts
11-Oct-18 16:16 36.441991 -122.432471 158 33423ft 506kts
11-Oct-18 16:17 36.337672 -122.316267 129 34875ft 516kts
11-Oct-18 16:18 36.247420 -122.177793 132 34896ft 515kts
11-Oct-18 16:19 36.154737 -122.042877 132 34897ft 515kts
11-Oct-18 16:20 36.061945 -121.908355 132 34894ft 515kts
11-Oct-18 16:21 35.968703 -121.774060 132 34887ft 515kts
11-Oct-18 16:22 35.875310 -121.640101 132 34885ft 515kts
11-Oct-18 16:23 35.766171 -121.484225 133 34880ft 514kts
11-Oct-18 16:24 35.688004 -121.372934 133 34872ft 515kts
11-Oct-18 16:25 35.594633 -121.240293 133 34871ft 514kts
11-Oct-18 16:26 35.500365 -121.107485 134 34870ft 514kts
11-Oct-18 16:27 35.415381 -120.967119 126 34870ft 511kts
11-Oct-18 16:28 35.335319 -120.823097 127 34870ft 510kts
11-Oct-18 16:29 35.254616 -120.680598 127 34873ft 510kts
11-Oct-18 16:30 35.173528 -120.537832 128 34871ft 510kts
11-Oct-18 16:31 35.078738 -120.372371 128 34881ft 510kts
11-Oct-18 16:32 35.010768 -120.254250 128 34885ft 510kts
11-Oct-18 16:33 34.928837 -120.112402 129 34883ft 510kts
11-Oct-18 16:34 34.847199 -119.971596 129 34883ft 510kts
11-Oct-18 16:35 34.765066 -119.830544 130 34882ft 510kts
11-Oct-18 16:36 34.683148 -119.690401 130 34887ft 509kts
11-Oct-18 16:37 34.600771 -119.550022 130 34896ft 510kts
11-Oct-18 16:38 34.518399 -119.410198 131 34896ft 509kts
11-Oct-18 16:39 34.435847 -119.270616 131 34898ft 509kts
11-Oct-18 16:40 34.353177 -119.131373 131 34893ft 509kts
11-Oct-18 16:41 34.270557 -118.992748 131 34890ft 508kts
11-Oct-18 16:42 34.190140 -118.858330 132 34889ft 481kts
11-Oct-18 16:43 34.111682 -118.727443 132 34249ft 476kts
11-Oct-18 16:44 34.035044 -118.600079 133 32681ft 464kts
11-Oct-18 16:45 33.959852 -118.476047 133 31107ft 453kts
11-Oct-18 16:46 33.878607 -118.359424 142 28793ft 450kts
11-Oct-18 16:47 33.793091 -118.250782 139 27019ft 441kts
11-Oct-18 16:48 33.712293 -118.144615 138 24018ft 423kts
11-Oct-18 16:49 33.634390 -118.042638 137 21838ft 407kts
11-Oct-18 16:50 33.558771 -117.943922 136 20252ft 395kts
11-Oct-18 16:51 33.483578 -117.855439 140 19201ft 370kts
11-Oct-18 16:52 33.409871 -117.771978 142 17733ft 360kts
11-Oct-18 16:53 33.335722 -117.693505 141 16295ft 351kts
11-Oct-18 16:54 33.263578 -117.616727 141 15105ft 343kts
11-Oct-18 16:55 33.191800 -117.540928 141 13981ft 339kts
11-Oct-18 16:56 33.121833 -117.469761 146 12221ft 325kts
11-Oct-18 16:57 33.050785 -117.411593 146 10929ft 287kts
11-Oct-18 16:58 32.987711 -117.358630 145 9571ft 271kts
11-Oct-18 16:59 32.927292 -117.308079 144 8976ft 265kts
11-Oct-18 17:00 32.866728 -117.257627 144 8608ft 261kts
11-Oct-18 17:01 32.812849 -117.203206 118 7089ft 249kts
11-Oct-18 17:02 32.792893 -117.128061 104 6109ft 231kts
11-Oct-18 17:03 32.775340 -117.054742 111 5983ft 231kts
11-Oct-18 17:04 32.748912 -116.985247 105 5987ft 231kts
11-Oct-18 17:05 32.744957 -116.908973 92 5982ft 231kts
11-Oct-18 17:06 32.742512 -116.832521 92 5977ft 231kts
11-Oct-18 17:07 32.731841 -116.758689 134 5802ft 233kts
11-Oct-18 17:08 32.679898 -116.777910 239 5814ft 233kts
11-Oct-18 17:09 32.682380 -116.851901 283 5582ft 241kts
11-Oct-18 17:10 32.677131 -116.926586 253 4930ft 229kts
11-Oct-18 17:11 32.685550 -116.996365 287 3555ft 213kts
11-Oct-18 17:12 32.700817 -117.054953 285 2710ft 168kts
11-Oct-18 17:13 32.712652 -117.103931 285 1351ft 144kts
11-Oct-18 17:14 32.723752 -117.149593 286 671ft 144kts
11-Oct-18 17:15 32.734427 -117.193226 287 29ft 101kts
11-Oct-18 17:16 32.735844 -117.202048 177 28ft 0kts
11-Oct-18 17:17 32.735192 -117.200708 104 28ft 15kts
11-Oct-18 17:18 32.733925 -117.195486 105 28ft 16kts
11-Oct-18 17:19 32.732728 -117.190529 105 28ft 14kts
11-Oct-18 17:20 32.731732 -117.186412 106 28ft 13kts
11-Oct-18 17:21 32.734010 -117.183962 9 28ft 14kts
11-Oct-18 17:22 32.736582 -117.186149 270 28ft 7kts
11-Oct-18 17:23 32.736582 -117.186426 269 28ft 0kts

Navigation Log

Ident Type
Flight plan parsing failed, navigation log unavailable